sensor_id;sensor_type;location;lat;lon;timestamp;P1;durP1;ratioP1;P2;durP2;ratioP2
2123;SDS011;1068;52.460;13.528;2024-01-15T00:08:26;8.02;;;6.63;;
2123;SDS011;1068;52.460;13.528;2024-01-15T00:10:53;8.23;;;6.57;;
2123;SDS011;1068;52.460;13.528;2024-01-15T00:13:20;8.15;;;6.43;;
2123;SDS011;1068;52.460;13.528;2024-01-15T00:15:48;8.05;;;6.68;;
2123;SDS011;1068;52.460;13.528;2024-01-15T00:18:15;7.60;;;6.78;;
2123;SDS011;1068;52.460;13.528;2024-01-15T00:20:42;8.25;;;7.43;;
2123;SDS011;1068;52.460;13.528;2024-01-15T00:23:09;7.38;;;6.68;;
2123;SDS011;1068;52.460;13.528;2024-01-15T00:25:36;8.05;;;6.57;;
2123;SDS011;1068;52.460;13.528;2024-01-15T00:28:03;7.68;;;5.65;;
2123;SDS011;1068;52.460;13.528;2024-01-15T00:30:30;8.48;;;6.50;;
2123;SDS011;1068;52.460;13.528;2024-01-15T00:32:59;8.73;;;6.70;;
2123;SDS011;1068;52.460;13.528;2024-01-15T00:35:26;7.72;;;6.85;;
2123;SDS011;1068;52.460;13.528;2024-01-15T00:37:53;7.90;;;7.10;;
2123;SDS011;1068;52.460;13.528;2024-01-15T00:40:19;9.43;;;7.22;;
2123;SDS011;1068;52.460;13.528;2024-01-15T00:42:46;7.93;;;7.13;;
2123;SDS011;1068;52.460;13.528;2024-01-15T00:45:14;8.02;;;6.97;;
2123;SDS011;1068;52.460;13.528;2024-01-15T00:47:41;7.47;;;6.55;;
2123;SDS011;1068;52.460;13.528;2024-01-15T00:50:09;9.30;;;7.28;;
2123;SDS011;1068;52.460;13.528;2024-01-15T00:52:36;10.10;;;6.95;;
2123;SDS011;1068;52.460;13.528;2024-01-15T00:55:03;10.23;;;7.22;;
2123;SDS011;1068;52.460;13.528;2024-01-15T00:57:30;7.63;;;6.70;;
2123;SDS011;1068;52.460;13.528;2024-01-15T00:59:57;8.77;;;7.00;;
2123;SDS011;1068;52.460;13.528;2024-01-15T01:02:25;11.10;;;8.48;;
2123;SDS011;1068;52.460;13.528;2024-01-15T01:04:52;9.75;;;8.00;;
2123;SDS011;1068;52.460;13.528;2024-01-15T01:07:21;10.20;;;7.35;;
2123;SDS011;1068;52.460;13.528;2024-01-15T01:09:47;10.35;;;7.70;;
2123;SDS011;1068;52.460;13.528;2024-01-15T01:12:16;8.18;;;7.07;;
2123;SDS011;1068;52.460;13.528;2024-01-15T01:14:43;9.55;;;7.90;;
2123;SDS011;1068;52.460;13.528;2024-01-15T01:17:10;9.50;;;7.22;;
2123;SDS011;1068;52.460;13.528;2024-01-15T01:19:37;9.15;;;7.63;;
2123;SDS011;1068;52.460;13.528;2024-01-15T01:22:04;8.27;;;7.10;;
2123;SDS011;1068;52.460;13.528;2024-01-15T01:24:32;9.88;;;7.93;;
2123;SDS011;1068;52.460;13.528;2024-01-15T01:26:59;9.23;;;6.80;;
2123;SDS011;1068;52.460;13.528;2024-01-15T01:29:26;9.20;;;7.22;;
2123;SDS011;1068;52.460;13.528;2024-01-15T01:31:53;9.05;;;6.93;;
2123;SDS011;1068;52.460;13.528;2024-01-15T01:34:21;13.30;;;7.65;;
2123;SDS011;1068;52.460;13.528;2024-01-15T01:36:48;8.77;;;6.35;;
2123;SDS011;1068;52.460;13.528;2024-01-15T01:39:15;9.38;;;7.82;;
2123;SDS011;1068;52.460;13.528;2024-01-15T01:41:43;9.48;;;7.65;;
2123;SDS011;1068;52.460;13.528;2024-01-15T01:44:10;9.52;;;7.00;;
2123;SDS011;1068;52.460;13.528;2024-01-15T01:46:37;11.45;;;8.05;;
2123;SDS011;1068;52.460;13.528;2024-01-15T01:49:05;10.13;;;7.35;;
2123;SDS011;1068;52.460;13.528;2024-01-15T01:51:34;7.22;;;6.53;;
2123;SDS011;1068;52.460;13.528;2024-01-15T01:54:02;8.55;;;7.63;;
2123;SDS011;1068;52.460;13.528;2024-01-15T01:56:29;7.95;;;7.00;;
2123;SDS011;1068;52.460;13.528;2024-01-15T01:58:58;9.80;;;7.57;;
2123;SDS011;1068;52.460;13.528;2024-01-15T02:01:25;10.13;;;7.78;;
2123;SDS011;1068;52.460;13.528;2024-01-15T02:03:52;9.60;;;7.40;;
2123;SDS011;1068;52.460;13.528;2024-01-15T02:06:21;9.75;;;7.18;;
2123;SDS011;1068;52.460;13.528;2024-01-15T02:08:48;11.57;;;7.85;;
2123;SDS011;1068;52.460;13.528;2024-01-15T02:11:15;10.25;;;7.60;;
2123;SDS011;1068;52.460;13.528;2024-01-15T02:13:42;11.32;;;7.55;;
2123;SDS011;1068;52.460;13.528;2024-01-15T02:16:10;12.48;;;8.13;;
2123;SDS011;1068;52.460;13.528;2024-01-15T02:18:41;8.45;;;7.07;;
2123;SDS011;1068;52.460;13.528;2024-01-15T02:21:08;8.63;;;7.40;;
2123;SDS011;1068;52.460;13.528;2024-01-15T02:23:37;8.23;;;7.43;;
2123;SDS011;1068;52.460;13.528;2024-01-15T02:26:04;12.85;;;8.43;;
2123;SDS011;1068;52.460;13.528;2024-01-15T02:28:31;8.75;;;7.85;;
2123;SDS011;1068;52.460;13.528;2024-01-15T02:30:59;11.27;;;7.38;;
2123;SDS011;1068;52.460;13.528;2024-01-15T02:33:26;9.90;;;7.03;;
2123;SDS011;1068;52.460;13.528;2024-01-15T02:35:53;8.30;;;6.93;;
2123;SDS011;1068;52.460;13.528;2024-01-15T02:38:20;9.27;;;6.95;;
2123;SDS011;1068;52.460;13.528;2024-01-15T02:40:49;9.02;;;6.38;;
2123;SDS011;1068;52.460;13.528;2024-01-15T02:43:16;10.93;;;7.05;;
2123;SDS011;1068;52.460;13.528;2024-01-15T02:45:44;11.48;;;7.65;;
2123;SDS011;1068;52.460;13.528;2024-01-15T02:48:11;7.60;;;6.57;;
2123;SDS011;1068;52.460;13.528;2024-01-15T02:50:38;7.18;;;6.22;;
2123;SDS011;1068;52.460;13.528;2024-01-15T02:53:05;7.93;;;6.07;;
2123;SDS011;1068;52.460;13.528;2024-01-15T02:55:32;9.15;;;6.57;;
2123;SDS011;1068;52.460;13.528;2024-01-15T02:58:00;10.75;;;6.43;;
2123;SDS011;1068;52.460;13.528;2024-01-15T03:00:27;9.18;;;5.93;;
2123;SDS011;1068;52.460;13.528;2024-01-15T03:02:54;8.30;;;5.85;;
2123;SDS011;1068;52.460;13.528;2024-01-15T03:05:21;8.60;;;5.68;;
2123;SDS011;1068;52.460;13.528;2024-01-15T03:07:48;6.43;;;5.22;;
2123;SDS011;1068;52.460;13.528;2024-01-15T03:10:15;8.65;;;6.20;;
2123;SDS011;1068;52.460;13.528;2024-01-15T03:12:42;8.95;;;6.45;;
2123;SDS011;1068;52.460;13.528;2024-01-15T03:15:11;8.15;;;6.25;;
2123;SDS011;1068;52.460;13.528;2024-01-15T03:17:38;8.82;;;5.60;;
2123;SDS011;1068;52.460;13.528;2024-01-15T03:20:05;7.07;;;5.90;;
2123;SDS011;1068;52.460;13.528;2024-01-15T03:22:32;6.65;;;5.97;;
2123;SDS011;1068;52.460;13.528;2024-01-15T03:24:59;7.13;;;5.15;;
2123;SDS011;1068;52.460;13.528;2024-01-15T03:27:26;8.35;;;6.00;;
2123;SDS011;1068;52.460;13.528;2024-01-15T03:29:53;6.60;;;4.70;;
2123;SDS011;1068;52.460;13.528;2024-01-15T03:32:21;8.57;;;6.55;;
2123;SDS011;1068;52.460;13.528;2024-01-15T03:34:48;6.38;;;5.10;;
2123;SDS011;1068;52.460;13.528;2024-01-15T03:37:17;8.90;;;5.55;;
2123;SDS011;1068;52.460;13.528;2024-01-15T03:39:44;6.20;;;5.30;;
2123;SDS011;1068;52.460;13.528;2024-01-15T03:42:11;7.22;;;5.50;;
2123;SDS011;1068;52.460;13.528;2024-01-15T03:44:39;7.53;;;4.85;;
2123;SDS011;1068;52.460;13.528;2024-01-15T03:47:06;7.55;;;5.18;;
2123;SDS011;1068;52.460;13.528;2024-01-15T03:49:34;6.28;;;5.05;;
2123;SDS011;1068;52.460;13.528;2024-01-15T03:52:01;9.23;;;5.13;;
2123;SDS011;1068;52.460;13.528;2024-01-15T03:54:28;8.15;;;4.53;;
2123;SDS011;1068;52.460;13.528;2024-01-15T03:56:55;11.88;;;5.82;;
2123;SDS011;1068;52.460;13.528;2024-01-15T03:59:22;12.10;;;4.82;;
2123;SDS011;1068;52.460;13.528;2024-01-15T04:01:49;5.90;;;5.00;;
2123;SDS011;1068;52.460;13.528;2024-01-15T04:04:16;7.70;;;5.05;;
2123;SDS011;1068;52.460;13.528;2024-01-15T04:06:45;4.90;;;4.45;;
2123;SDS011;1068;52.460;13.528;2024-01-15T04:09:12;9.90;;;5.00;;
2123;SDS011;1068;52.460;13.528;2024-01-15T04:11:39;6.32;;;4.75;;
2123;SDS011;1068;52.460;13.528;2024-01-15T04:14:06;6.15;;;5.38;;
2123;SDS011;1068;52.460;13.528;2024-01-15T04:16:33;7.35;;;5.40;;
2123;SDS011;1068;52.460;13.528;2024-01-15T04:19:00;5.60;;;5.05;;
2123;SDS011;1068;52.460;13.528;2024-01-15T04:21:26;5.15;;;4.65;;
2123;SDS011;1068;52.460;13.528;2024-01-15T04:23:55;8.18;;;4.40;;
2123;SDS011;1068;52.460;13.528;2024-01-15T04:26:22;8.73;;;4.65;;
2123;SDS011;1068;52.460;13.528;2024-01-15T04:28:49;5.80;;;4.68;;
2123;SDS011;1068;52.460;13.528;2024-01-15T04:31:22;6.18;;;4.68;;
2123;SDS011;1068;52.460;13.528;2024-01-15T04:33:49;11.30;;;5.68;;
2123;SDS011;1068;52.460;13.528;2024-01-15T04:36:16;9.40;;;5.20;;
2123;SDS011;1068;52.460;13.528;2024-01-15T04:38:43;6.70;;;5.15;;
2123;SDS011;1068;52.460;13.528;2024-01-15T04:41:12;6.63;;;4.70;;
2123;SDS011;1068;52.460;13.528;2024-01-15T04:43:39;6.22;;;4.60;;
2123;SDS011;1068;52.460;13.528;2024-01-15T04:46:06;8.15;;;4.00;;
2123;SDS011;1068;52.460;13.528;2024-01-15T04:48:33;9.90;;;4.85;;
2123;SDS011;1068;52.460;13.528;2024-01-15T04:51:00;6.68;;;4.70;;
2123;SDS011;1068;52.460;13.528;2024-01-15T04:53:27;7.78;;;4.80;;
2123;SDS011;1068;52.460;13.528;2024-01-15T04:55:54;9.75;;;4.68;;
2123;SDS011;1068;52.460;13.528;2024-01-15T04:58:22;7.20;;;3.97;;
2123;SDS011;1068;52.460;13.528;2024-01-15T05:00:51;3.80;;;3.15;;
2123;SDS011;1068;52.460;13.528;2024-01-15T05:03:19;7.80;;;4.10;;
2123;SDS011;1068;52.460;13.528;2024-01-15T05:05:46;8.40;;;4.07;;
2123;SDS011;1068;52.460;13.528;2024-01-15T05:08:13;6.72;;;3.70;;
2123;SDS011;1068;52.460;13.528;2024-01-15T05:10:40;5.18;;;3.60;;
2123;SDS011;1068;52.460;13.528;2024-01-15T05:13:07;5.13;;;3.88;;
2123;SDS011;1068;52.460;13.528;2024-01-15T05:15:35;6.43;;;3.15;;
2123;SDS011;1068;52.460;13.528;2024-01-15T05:18:02;3.75;;;3.45;;
2123;SDS011;1068;52.460;13.528;2024-01-15T05:20:29;3.50;;;2.80;;
2123;SDS011;1068;52.460;13.528;2024-01-15T05:22:56;8.27;;;4.88;;
2123;SDS011;1068;52.460;13.528;2024-01-15T05:25:23;7.57;;;3.22;;
2123;SDS011;1068;52.460;13.528;2024-01-15T05:27:50;4.80;;;2.92;;
2123;SDS011;1068;52.460;13.528;2024-01-15T05:30:17;6.90;;;3.22;;
2123;SDS011;1068;52.460;13.528;2024-01-15T05:32:45;4.35;;;3.75;;
2123;SDS011;1068;52.460;13.528;2024-01-15T05:35:12;9.75;;;3.90;;
2123;SDS011;1068;52.460;13.528;2024-01-15T05:40:06;7.25;;;4.10;;
2123;SDS011;1068;52.460;13.528;2024-01-15T05:42:33;6.35;;;3.58;;
2123;SDS011;1068;52.460;13.528;2024-01-15T05:45:00;6.15;;;3.40;;
2123;SDS011;1068;52.460;13.528;2024-01-15T05:47:29;8.00;;;3.13;;
2123;SDS011;1068;52.460;13.528;2024-01-15T05:49:57;6.45;;;3.60;;
2123;SDS011;1068;52.460;13.528;2024-01-15T05:52:24;5.45;;;3.75;;
2123;SDS011;1068;52.460;13.528;2024-01-15T05:54:52;7.28;;;3.30;;
2123;SDS011;1068;52.460;13.528;2024-01-15T05:57:19;7.18;;;3.22;;
2123;SDS011;1068;52.460;13.528;2024-01-15T05:59:45;4.72;;;2.85;;
2123;SDS011;1068;52.460;13.528;2024-01-15T06:02:12;8.23;;;3.63;;
2123;SDS011;1068;52.460;13.528;2024-01-15T06:04:39;4.25;;;2.75;;
2123;SDS011;1068;52.460;13.528;2024-01-15T06:07:08;4.68;;;2.80;;
2123;SDS011;1068;52.460;13.528;2024-01-15T06:09:35;6.80;;;2.70;;
2123;SDS011;1068;52.460;13.528;2024-01-15T06:12:03;11.38;;;2.78;;
2123;SDS011;1068;52.460;13.528;2024-01-15T06:14:30;5.03;;;3.13;;
2123;SDS011;1068;52.460;13.528;2024-01-15T06:16:57;6.35;;;3.60;;
2123;SDS011;1068;52.460;13.528;2024-01-15T06:19:24;3.67;;;2.95;;
2123;SDS011;1068;52.460;13.528;2024-01-15T06:21:51;4.32;;;2.50;;
2123;SDS011;1068;52.460;13.528;2024-01-15T06:24:19;7.38;;;3.45;;
2123;SDS011;1068;52.460;13.528;2024-01-15T06:26:48;3.28;;;2.80;;
2123;SDS011;1068;52.460;13.528;2024-01-15T06:29:15;3.17;;;2.75;;
2123;SDS011;1068;52.460;13.528;2024-01-15T06:31:42;2.97;;;2.53;;
2123;SDS011;1068;52.460;13.528;2024-01-15T06:34:09;7.47;;;2.70;;
2123;SDS011;1068;52.460;13.528;2024-01-15T06:36:36;5.90;;;2.90;;
2123;SDS011;1068;52.460;13.528;2024-01-15T06:39:03;3.63;;;2.88;;
2123;SDS011;1068;52.460;13.528;2024-01-15T06:41:31;2.47;;;1.80;;
2123;SDS011;1068;52.460;13.528;2024-01-15T06:43:58;6.00;;;2.42;;
2123;SDS011;1068;52.460;13.528;2024-01-15T06:46:25;4.63;;;1.88;;
2123;SDS011;1068;52.460;13.528;2024-01-15T06:48:52;8.48;;;3.05;;
2123;SDS011;1068;52.460;13.528;2024-01-15T06:51:19;8.13;;;2.20;;
2123;SDS011;1068;52.460;13.528;2024-01-15T06:53:46;7.88;;;4.25;;
2123;SDS011;1068;52.460;13.528;2024-01-15T06:56:13;6.50;;;2.20;;
2123;SDS011;1068;52.460;13.528;2024-01-15T06:58:41;3.13;;;2.67;;
2123;SDS011;1068;52.460;13.528;2024-01-15T07:01:08;6.28;;;2.45;;
2123;SDS011;1068;52.460;13.528;2024-01-15T07:03:35;4.63;;;2.83;;
2123;SDS011;1068;52.460;13.528;2024-01-15T07:06:02;4.18;;;1.90;;
2123;SDS011;1068;52.460;13.528;2024-01-15T07:08:29;7.35;;;2.30;;
2123;SDS011;1068;52.460;13.528;2024-01-15T07:10:56;4.85;;;1.95;;
2123;SDS011;1068;52.460;13.528;2024-01-15T07:13:23;3.67;;;2.22;;
2123;SDS011;1068;52.460;13.528;2024-01-15T07:15:51;6.25;;;2.80;;
2123;SDS011;1068;52.460;13.528;2024-01-15T07:18:18;8.52;;;2.17;;
2123;SDS011;1068;52.460;13.528;2024-01-15T07:20:45;5.03;;;1.85;;
2123;SDS011;1068;52.460;13.528;2024-01-15T07:23:12;8.13;;;3.00;;
2123;SDS011;1068;52.460;13.528;2024-01-15T07:25:39;4.72;;;2.15;;
2123;SDS011;1068;52.460;13.528;2024-01-15T07:28:06;5.40;;;1.63;;
2123;SDS011;1068;52.460;13.528;2024-01-15T07:30:33;4.68;;;2.20;;
2123;SDS011;1068;52.460;13.528;2024-01-15T07:33:01;5.15;;;2.00;;
2123;SDS011;1068;52.460;13.528;2024-01-15T07:35:29;4.18;;;1.92;;
2123;SDS011;1068;52.460;13.528;2024-01-15T07:37:56;6.93;;;1.52;;
2123;SDS011;1068;52.460;13.528;2024-01-15T07:40:23;6.20;;;1.70;;
2123;SDS011;1068;52.460;13.528;2024-01-15T07:42:50;11.82;;;2.95;;
2123;SDS011;1068;52.460;13.528;2024-01-15T07:45:17;5.25;;;1.90;;
2123;SDS011;1068;52.460;13.528;2024-01-15T07:47:44;7.22;;;2.60;;
2123;SDS011;1068;52.460;13.528;2024-01-15T07:50:12;3.13;;;1.40;;
2123;SDS011;1068;52.460;13.528;2024-01-15T07:52:40;4.68;;;1.52;;
2123;SDS011;1068;52.460;13.528;2024-01-15T07:55:07;6.28;;;1.92;;
2123;SDS011;1068;52.460;13.528;2024-01-15T07:57:34;5.47;;;1.70;;
2123;SDS011;1068;52.460;13.528;2024-01-15T08:00:01;4.00;;;2.25;;
2123;SDS011;1068;52.460;13.528;2024-01-15T08:02:30;4.20;;;1.20;;
2123;SDS011;1068;52.460;13.528;2024-01-15T08:04:57;6.88;;;2.00;;
2123;SDS011;1068;52.460;13.528;2024-01-15T08:07:25;5.90;;;1.67;;
2123;SDS011;1068;52.460;13.528;2024-01-15T08:09:53;4.15;;;1.73;;
2123;SDS011;1068;52.460;13.528;2024-01-15T08:12:19;5.10;;;2.50;;
2123;SDS011;1068;52.460;13.528;2024-01-15T08:14:47;7.43;;;2.95;;
2123;SDS011;1068;52.460;13.528;2024-01-15T08:17:14;8.40;;;1.60;;
2123;SDS011;1068;52.460;13.528;2024-01-15T08:19:41;5.97;;;1.80;;
2123;SDS011;1068;52.460;13.528;2024-01-15T08:22:08;11.35;;;2.13;;
2123;SDS011;1068;52.460;13.528;2024-01-15T08:24:37;7.22;;;2.50;;
2123;SDS011;1068;52.460;13.528;2024-01-15T08:27:04;3.72;;;1.58;;
2123;SDS011;1068;52.460;13.528;2024-01-15T08:29:31;5.65;;;1.50;;
2123;SDS011;1068;52.460;13.528;2024-01-15T08:31:59;3.92;;;1.35;;
2123;SDS011;1068;52.460;13.528;2024-01-15T08:34:26;2.90;;;1.50;;
2123;SDS011;1068;52.460;13.528;2024-01-15T08:36:53;5.07;;;2.05;;
2123;SDS011;1068;52.460;13.528;2024-01-15T08:39:20;4.85;;;2.03;;
2123;SDS011;1068;52.460;13.528;2024-01-15T08:41:49;2.45;;;1.35;;
2123;SDS011;1068;52.460;13.528;2024-01-15T08:44:16;10.13;;;2.00;;
2123;SDS011;1068;52.460;13.528;2024-01-15T08:46:43;3.10;;;1.42;;
2123;SDS011;1068;52.460;13.528;2024-01-15T08:49:10;7.00;;;1.38;;
2123;SDS011;1068;52.460;13.528;2024-01-15T08:51:37;6.85;;;1.60;;
2123;SDS011;1068;52.460;13.528;2024-01-15T08:54:04;4.70;;;1.75;;
2123;SDS011;1068;52.460;13.528;2024-01-15T08:56:33;5.88;;;1.30;;
2123;SDS011;1068;52.460;13.528;2024-01-15T08:59:01;4.43;;;1.80;;
2123;SDS011;1068;52.460;13.528;2024-01-15T09:01:28;2.83;;;1.45;;
2123;SDS011;1068;52.460;13.528;2024-01-15T09:03:55;10.88;;;1.75;;
2123;SDS011;1068;52.460;13.528;2024-01-15T09:06:22;6.93;;;1.92;;
2123;SDS011;1068;52.460;13.528;2024-01-15T09:08:49;9.50;;;2.40;;
2123;SDS011;1068;52.460;13.528;2024-01-15T09:11:16;4.90;;;1.55;;
2123;SDS011;1068;52.460;13.528;2024-01-15T09:13:43;7.32;;;1.50;;
2123;SDS011;1068;52.460;13.528;2024-01-15T09:16:12;1.38;;;1.02;;
2123;SDS011;1068;52.460;13.528;2024-01-15T09:18:39;6.50;;;1.85;;
2123;SDS011;1068;52.460;13.528;2024-01-15T09:21:05;5.45;;;1.60;;
2123;SDS011;1068;52.460;13.528;2024-01-15T09:23:32;6.20;;;1.60;;
2123;SDS011;1068;52.460;13.528;2024-01-15T09:26:00;1.73;;;1.42;;
2123;SDS011;1068;52.460;13.528;2024-01-15T09:28:27;4.18;;;1.40;;
2123;SDS011;1068;52.460;13.528;2024-01-15T09:30:54;6.30;;;1.65;;
2123;SDS011;1068;52.460;13.528;2024-01-15T09:33:22;6.97;;;1.75;;
2123;SDS011;1068;52.460;13.528;2024-01-15T09:35:49;4.03;;;2.00;;
2123;SDS011;1068;52.460;13.528;2024-01-15T09:38:16;8.20;;;2.63;;
2123;SDS011;1068;52.460;13.528;2024-01-15T09:40:45;6.43;;;1.77;;
2123;SDS011;1068;52.460;13.528;2024-01-15T09:43:12;8.48;;;2.08;;
2123;SDS011;1068;52.460;13.528;2024-01-15T09:45:40;8.45;;;2.03;;
2123;SDS011;1068;52.460;13.528;2024-01-15T09:48:07;2.58;;;1.40;;
2123;SDS011;1068;52.460;13.528;2024-01-15T09:50:35;3.05;;;2.17;;
2123;SDS011;1068;52.460;13.528;2024-01-15T09:53:02;8.05;;;1.73;;
2123;SDS011;1068;52.460;13.528;2024-01-15T09:55:30;5.55;;;2.10;;
2123;SDS011;1068;52.460;13.528;2024-01-15T09:57:58;5.72;;;1.65;;
2123;SDS011;1068;52.460;13.528;2024-01-15T10:00:26;4.10;;;1.90;;
2123;SDS011;1068;52.460;13.528;2024-01-15T10:02:53;5.18;;;1.60;;
2123;SDS011;1068;52.460;13.528;2024-01-15T10:05:20;3.47;;;1.70;;
2123;SDS011;1068;52.460;13.528;2024-01-15T10:07:48;4.00;;;2.10;;
2123;SDS011;1068;52.460;13.528;2024-01-15T10:10:16;3.17;;;1.52;;
2123;SDS011;1068;52.460;13.528;2024-01-15T10:12:43;1.83;;;1.60;;
2123;SDS011;1068;52.460;13.528;2024-01-15T10:15:10;7.68;;;1.63;;
2123;SDS011;1068;52.460;13.528;2024-01-15T10:17:37;5.78;;;3.17;;
2123;SDS011;1068;52.460;13.528;2024-01-15T10:20:07;2.58;;;1.45;;
2123;SDS011;1068;52.460;13.528;2024-01-15T10:22:34;3.75;;;1.45;;
2123;SDS011;1068;52.460;13.528;2024-01-15T10:25:05;7.13;;;1.23;;
2123;SDS011;1068;52.460;13.528;2024-01-15T10:27:32;5.85;;;1.40;;
2123;SDS011;1068;52.460;13.528;2024-01-15T10:29:59;3.83;;;1.25;;
2123;SDS011;1068;52.460;13.528;2024-01-15T10:32:27;4.75;;;1.80;;
2123;SDS011;1068;52.460;13.528;2024-01-15T10:34:54;2.75;;;1.60;;
2123;SDS011;1068;52.460;13.528;2024-01-15T10:37:21;1.70;;;1.60;;
2123;SDS011;1068;52.460;13.528;2024-01-15T10:39:50;3.25;;;1.33;;
2123;SDS011;1068;52.460;13.528;2024-01-15T10:42:19;3.58;;;2.40;;
2123;SDS011;1068;52.460;13.528;2024-01-15T10:44:45;3.88;;;1.60;;
2123;SDS011;1068;52.460;13.528;2024-01-15T10:47:12;1.58;;;1.30;;
2123;SDS011;1068;52.460;13.528;2024-01-15T10:49:40;5.03;;;1.60;;
2123;SDS011;1068;52.460;13.528;2024-01-15T10:52:07;2.00;;;1.85;;
2123;SDS011;1068;52.460;13.528;2024-01-15T10:54:34;3.63;;;1.42;;
2123;SDS011;1068;52.460;13.528;2024-01-15T10:57:02;2.58;;;1.45;;
2123;SDS011;1068;52.460;13.528;2024-01-15T10:59:31;2.10;;;1.17;;
2123;SDS011;1068;52.460;13.528;2024-01-15T11:01:59;7.53;;;1.55;;
2123;SDS011;1068;52.460;13.528;2024-01-15T11:04:26;6.38;;;1.10;;
2123;SDS011;1068;52.460;13.528;2024-01-15T11:06:53;1.63;;;1.10;;
2123;SDS011;1068;52.460;13.528;2024-01-15T11:09:20;1.33;;;1.15;;
2123;SDS011;1068;52.460;13.528;2024-01-15T11:11:47;1.30;;;1.20;;
2123;SDS011;1068;52.460;13.528;2024-01-15T11:14:39;3.92;;;1.85;;
2123;SDS011;1068;52.460;13.528;2024-01-15T11:17:08;2.25;;;1.30;;
2123;SDS011;1068;52.460;13.528;2024-01-15T11:19:36;2.75;;;1.33;;
2123;SDS011;1068;52.460;13.528;2024-01-15T11:22:05;2.45;;;1.42;;
2123;SDS011;1068;52.460;13.528;2024-01-15T11:24:33;2.83;;;1.70;;
2123;SDS011;1068;52.460;13.528;2024-01-15T11:27:01;4.45;;;1.75;;
2123;SDS011;1068;52.460;13.528;2024-01-15T11:29:31;4.38;;;1.60;;
2123;SDS011;1068;52.460;13.528;2024-01-15T11:32:01;1.10;;;1.00;;
2123;SDS011;1068;52.460;13.528;2024-01-15T11:37:15;3.25;;;1.10;;
2123;SDS011;1068;52.460;13.528;2024-01-15T11:39:42;1.42;;;1.23;;
2123;SDS011;1068;52.460;13.528;2024-01-15T11:42:09;1.50;;;1.00;;
2123;SDS011;1068;52.460;13.528;2024-01-15T11:44:36;9.80;;;1.73;;
2123;SDS011;1068;52.460;13.528;2024-01-15T11:47:05;2.22;;;1.15;;
2123;SDS011;1068;52.460;13.528;2024-01-15T11:49:37;1.60;;;1.00;;
2123;SDS011;1068;52.460;13.528;2024-01-15T11:52:11;1.52;;;1.10;;
2123;SDS011;1068;52.460;13.528;2024-01-15T11:54:38;1.48;;;1.10;;
2123;SDS011;1068;52.460;13.528;2024-01-15T11:57:08;1.20;;;1.10;;
2123;SDS011;1068;52.460;13.528;2024-01-15T11:59:36;2.55;;;1.40;;
2123;SDS011;1068;52.460;13.528;2024-01-15T12:02:04;2.05;;;1.20;;
2123;SDS011;1068;52.460;13.528;2024-01-15T12:04:32;3.03;;;1.40;;
2123;SDS011;1068;52.460;13.528;2024-01-15T12:06:58;3.20;;;1.85;;
2123;SDS011;1068;52.460;13.528;2024-01-15T12:09:25;1.30;;;1.20;;
2123;SDS011;1068;52.460;13.528;2024-01-15T12:11:54;1.23;;;1.13;;
2123;SDS011;1068;52.460;13.528;2024-01-15T12:14:24;1.80;;;1.70;;
2123;SDS011;1068;52.460;13.528;2024-01-15T12:16:54;1.58;;;1.10;;
2123;SDS011;1068;52.460;13.528;2024-01-15T12:19:22;1.48;;;1.38;;
2123;SDS011;1068;52.460;13.528;2024-01-15T12:21:50;3.05;;;1.50;;
2123;SDS011;1068;52.460;13.528;2024-01-15T12:24:17;1.63;;;1.38;;
2123;SDS011;1068;52.460;13.528;2024-01-15T12:26:44;1.65;;;1.55;;
2123;SDS011;1068;52.460;13.528;2024-01-15T12:29:10;1.65;;;1.55;;
2123;SDS011;1068;52.460;13.528;2024-01-15T12:31:37;1.70;;;1.60;;
2123;SDS011;1068;52.460;13.528;2024-01-15T12:34:04;2.90;;;1.80;;
2123;SDS011;1068;52.460;13.528;2024-01-15T12:36:33;1.98;;;1.40;;
2123;SDS011;1068;52.460;13.528;2024-01-15T12:39:00;1.77;;;1.20;;
2123;SDS011;1068;52.460;13.528;2024-01-15T12:41:28;3.17;;;1.42;;
2123;SDS011;1068;52.460;13.528;2024-01-15T12:43:54;2.05;;;1.33;;
2123;SDS011;1068;52.460;13.528;2024-01-15T12:46:21;1.30;;;1.20;;
2123;SDS011;1068;52.460;13.528;2024-01-15T12:48:50;2.45;;;1.40;;
2123;SDS011;1068;52.460;13.528;2024-01-15T12:51:17;1.65;;;1.55;;
2123;SDS011;1068;52.460;13.528;2024-01-15T12:53:45;1.95;;;1.65;;
2123;SDS011;1068;52.460;13.528;2024-01-15T12:56:12;1.92;;;1.40;;
2123;SDS011;1068;52.460;13.528;2024-01-15T12:58:39;1.88;;;0.95;;
2123;SDS011;1068;52.460;13.528;2024-01-15T13:01:06;1.23;;;1.05;;
2123;SDS011;1068;52.460;13.528;2024-01-15T13:03:33;2.35;;;1.27;;
2123;SDS011;1068;52.460;13.528;2024-01-15T13:05:59;2.00;;;1.15;;
2123;SDS011;1068;52.460;13.528;2024-01-15T13:08:26;1.43;;;1.10;;
2123;SDS011;1068;52.460;13.528;2024-01-15T13:10:56;1.35;;;1.00;;
2123;SDS011;1068;52.460;13.528;2024-01-15T13:13:23;3.47;;;1.10;;
2123;SDS011;1068;52.460;13.528;2024-01-15T13:15:50;1.75;;;1.52;;
2123;SDS011;1068;52.460;13.528;2024-01-15T13:18:17;3.00;;;1.10;;
2123;SDS011;1068;52.460;13.528;2024-01-15T13:20:44;2.10;;;1.20;;
2123;SDS011;1068;52.460;13.528;2024-01-15T13:23:11;2.88;;;1.20;;
2123;SDS011;1068;52.460;13.528;2024-01-15T13:25:38;2.47;;;1.70;;
2123;SDS011;1068;52.460;13.528;2024-01-15T13:28:06;1.10;;;1.00;;
2123;SDS011;1068;52.460;13.528;2024-01-15T13:30:34;2.30;;;2.15;;
2123;SDS011;1068;52.460;13.528;2024-01-15T13:33:00;1.83;;;1.23;;
2123;SDS011;1068;52.460;13.528;2024-01-15T13:35:29;1.30;;;1.20;;
2123;SDS011;1068;52.460;13.528;2024-01-15T13:37:57;1.25;;;1.15;;
2123;SDS011;1068;52.460;13.528;2024-01-15T13:40:24;2.25;;;1.20;;
2123;SDS011;1068;52.460;13.528;2024-01-15T13:42:51;2.85;;;1.00;;
2123;SDS011;1068;52.460;13.528;2024-01-15T13:45:20;1.70;;;1.60;;
2123;SDS011;1068;52.460;13.528;2024-01-15T13:47:49;2.70;;;1.40;;
2123;SDS011;1068;52.460;13.528;2024-01-15T13:50:15;2.88;;;1.80;;
2123;SDS011;1068;52.460;13.528;2024-01-15T13:52:43;2.80;;;1.95;;
2123;SDS011;1068;52.460;13.528;2024-01-15T13:55:10;2.60;;;1.58;;
2123;SDS011;1068;52.460;13.528;2024-01-15T13:57:36;2.15;;;1.60;;
2123;SDS011;1068;52.460;13.528;2024-01-15T14:00:04;1.85;;;1.55;;
2123;SDS011;1068;52.460;13.528;2024-01-15T14:02:37;1.63;;;1.40;;
2123;SDS011;1068;52.460;13.528;2024-01-15T14:05:04;1.40;;;1.30;;
2123;SDS011;1068;52.460;13.528;2024-01-15T14:07:32;10.32;;;4.93;;
2123;SDS011;1068;52.460;13.528;2024-01-15T14:09:59;4.40;;;2.47;;
2123;SDS011;1068;52.460;13.528;2024-01-15T14:12:26;2.20;;;2.00;;
2123;SDS011;1068;52.460;13.528;2024-01-15T14:14:53;1.58;;;1.48;;
2123;SDS011;1068;52.460;13.528;2024-01-15T14:17:20;4.47;;;2.38;;
2123;SDS011;1068;52.460;13.528;2024-01-15T14:19:48;2.13;;;1.70;;
2123;SDS011;1068;52.460;13.528;2024-01-15T14:22:15;3.72;;;2.00;;
2123;SDS011;1068;52.460;13.528;2024-01-15T14:24:42;2.13;;;1.75;;
2123;SDS011;1068;52.460;13.528;2024-01-15T14:27:09;3.25;;;1.58;;
2123;SDS011;1068;52.460;13.528;2024-01-15T14:29:36;2.17;;;1.80;;
2123;SDS011;1068;52.460;13.528;2024-01-15T14:32:03;2.47;;;2.03;;
2123;SDS011;1068;52.460;13.528;2024-01-15T14:34:30;4.25;;;1.55;;
2123;SDS011;1068;52.460;13.528;2024-01-15T14:36:59;5.15;;;2.00;;
2123;SDS011;1068;52.460;13.528;2024-01-15T14:39:26;4.13;;;1.80;;
2123;SDS011;1068;52.460;13.528;2024-01-15T14:41:53;2.50;;;1.70;;
2123;SDS011;1068;52.460;13.528;2024-01-15T14:44:20;1.95;;;1.83;;
2123;SDS011;1068;52.460;13.528;2024-01-15T14:46:47;2.45;;;1.83;;
2123;SDS011;1068;52.460;13.528;2024-01-15T14:49:15;1.92;;;1.55;;
2123;SDS011;1068;52.460;13.528;2024-01-15T14:51:42;2.55;;;1.60;;
2123;SDS011;1068;52.460;13.528;2024-01-15T14:54:11;5.22;;;2.20;;
2123;SDS011;1068;52.460;13.528;2024-01-15T14:56:38;4.85;;;1.42;;
2123;SDS011;1068;52.460;13.528;2024-01-15T14:59:05;2.92;;;1.40;;
2123;SDS011;1068;52.460;13.528;2024-01-15T15:01:32;4.85;;;2.08;;
2123;SDS011;1068;52.460;13.528;2024-01-15T15:03:59;3.40;;;2.20;;
2123;SDS011;1068;52.460;13.528;2024-01-15T15:06:26;3.80;;;1.98;;
2123;SDS011;1068;52.460;13.528;2024-01-15T15:08:54;2.40;;;1.73;;
2123;SDS011;1068;52.460;13.528;2024-01-15T15:11:22;4.50;;;1.70;;
2123;SDS011;1068;52.460;13.528;2024-01-15T15:13:49;4.55;;;2.13;;